Time;durP1;ratioP1;P1;durP2;ratioP2;P2;SDS_P1;SDS_P2;PMS_P1;PMS_P2;Temp;Humidity;BMP_temperature;BMP_pressure;BME280_temperature;BME280_humidity;BME280_pressure;Samples;Min_cycle;Max_cycle;Signal;HPM_P1;HPM_P2
2023/09/06 00:01:34;;;;;;;11.57;9.65;;;18.40;99.90;;;;;;5092532;28;20052;-75
2023/09/06 00:03:59;;;;;;;12.02;9.65;;;18.30;99.90;;;;;;5091727;28;20040;-75
2023/09/06 00:06:25;;;;;;;13.57;9.63;;;18.30;99.90;;;;;;5092734;28;20525;-75
2023/09/06 00:08:51;;;;;;;11.57;9.60;;;18.30;99.90;;;;;;5092429;28;20044;-75
2023/09/06 00:11:17;;;;;;;12.07;9.43;;;18.30;99.90;;;;;;5092103;28;20050;-75
2023/09/06 00:13:42;;;;;;;11.52;9.65;;;18.30;99.90;;;;;;5092448;28;20114;-75
2023/09/06 00:16:08;;;;;;;12.45;9.43;;;18.30;99.90;;;;;;5074397;28;20074;-75
2023/09/06 00:18:35;;;;;;;13.45;9.20;;;18.20;99.90;;;;;;5091996;28;20042;-75
2023/09/06 00:21:01;;;;;;;11.32;9.57;;;18.20;99.90;;;;;;5074024;28;20491;-75
2023/09/06 00:23:27;;;;;;;11.75;10.13;;;18.20;99.90;;;;;;5091665;28;20043;-75
2023/09/06 00:25:56;;;;;;;12.52;10.35;;;18.10;99.90;;;;;;5092201;28;20048;-75
2023/09/06 00:28:24;;;;;;;11.43;9.65;;;18.10;99.90;;;;;;5092510;28;20040;-75
2023/09/06 00:30:51;;;;;;;13.40;10.02;;;18.10;99.90;;;;;;5091577;28;20044;-75
2023/09/06 00:33:16;;;;;;;12.32;9.85;;;18.00;99.90;;;;;;5074074;28;20080;-75
2023/09/06 00:35:43;;;;;;;11.65;9.77;;;18.00;99.90;;;;;;5092225;28;20082;-75
2023/09/06 00:38:10;;;;;;;11.55;10.00;;;18.00;99.90;;;;;;5091508;28;20032;-75
2023/09/06 00:40:37;;;;;;;11.55;9.77;;;17.90;99.90;;;;;;5092595;28;20131;-75
2023/09/06 00:43:04;;;;;;;11.60;10.18;;;17.90;99.90;;;;;;5073460;28;20072;-75
2023/09/06 00:45:44;;;;;;;12.70;10.07;;;17.90;99.90;;;;;;5073449;28;20052;-75
2023/09/06 00:48:12;;;;;;;11.23;9.93;;;17.90;99.90;;;;;;5092205;28;20036;-75
2023/09/06 00:50:42;;;;;;;13.10;10.30;;;17.90;99.90;;;;;;5095790;28;20395;-75
2023/09/06 00:53:08;;;;;;;11.40;10.15;;;17.90;99.90;;;;;;5076961;28;20089;-75
2023/09/06 00:55:37;;;;;;;13.05;10.15;;;17.90;99.90;;;;;;5077914;28;20052;-75
2023/09/06 00:58:04;;;;;;;14.10;9.93;;;17.90;99.90;;;;;;5095472;28;20440;-74
2023/09/06 01:00:31;;;;;;;12.10;10.35;;;17.80;99.90;;;;;;5095444;28;20051;-75
2023/09/06 01:02:57;;;;;;;12.68;11.05;;;17.80;99.90;;;;;;5095251;28;20173;-74
2023/09/06 01:05:26;;;;;;;14.25;11.63;;;17.80;99.90;;;;;;5096047;28;20435;-75
2023/09/06 01:08:00;;;;;;;13.45;10.85;;;17.80;99.90;;;;;;5076955;28;20044;-75
2023/09/06 01:10:26;;;;;;;12.23;10.25;;;17.80;99.90;;;;;;5077579;28;20048;-75
2023/09/06 01:12:54;;;;;;;13.35;10.27;;;17.80;99.90;;;;;;5076119;28;20040;-75
2023/09/06 01:15:21;;;;;;;12.07;10.55;;;17.80;99.90;;;;;;5095990;28;20044;-75
2023/09/06 01:17:49;;;;;;;12.52;10.45;;;17.70;99.90;;;;;;5077509;28;20115;-75
2023/09/06 01:20:29;;;;;;;12.52;11.23;;;17.70;99.90;;;;;;5094771;28;20344;-74
2023/09/06 01:23:02;;;;;;;12.93;10.63;;;17.70;99.90;;;;;;5076697;28;20097;-75
2023/09/06 01:25:28;;;;;;;14.15;10.93;;;17.70;99.90;;;;;;5077712;28;20589;-75
2023/09/06 01:27:54;;;;;;;14.10;11.20;;;17.70;99.90;;;;;;5094695;28;20044;-75
2023/09/06 01:30:20;;;;;;;12.48;10.27;;;17.70;99.90;;;;;;5077111;28;20121;-75
2023/09/06 01:32:45;;;;;;;16.05;10.68;;;17.70;99.90;;;;;;5094671;28;20123;-75
2023/09/06 01:35:11;;;;;;;13.13;11.40;;;17.60;99.90;;;;;;5076126;28;20127;-75
2023/09/06 01:37:37;;;;;;;14.75;11.27;;;17.60;99.90;;;;;;5095450;28;20048;-75
2023/09/06 01:40:15;;;;;;;12.73;11.13;;;17.60;99.90;;;;;;5095218;28;20039;-75
2023/09/06 01:42:41;;;;;;;17.27;11.00;;;17.60;99.90;;;;;;5076300;28;20064;-75
2023/09/06 01:45:07;;;;;;;13.82;11.15;;;17.60;99.90;;;;;;5076976;28;20083;-75
2023/09/06 01:47:33;;;;;;;12.85;11.00;;;17.60;99.90;;;;;;5095163;28;20047;-75
2023/09/06 01:49:59;;;;;;;13.90;11.10;;;17.50;99.90;;;;;;5093792;28;20048;-75
2023/09/06 01:52:24;;;;;;;13.18;10.75;;;17.50;99.90;;;;;;5076284;28;20082;-75
2023/09/06 01:54:50;;;;;;;14.43;11.00;;;17.50;99.90;;;;;;5061391;28;20048;-75
2023/09/06 01:57:15;;;;;;;12.18;10.50;;;17.40;99.90;;;;;;5077144;28;20051;-75
2023/09/06 01:59:41;;;;;;;13.68;11.50;;;17.40;99.90;;;;;;5094654;28;20491;-75
2023/09/06 02:02:07;;;;;;;13.50;11.35;;;17.40;99.90;;;;;;5071314;28;20059;-75
2023/09/06 02:04:33;;;;;;;15.82;10.77;;;17.30;99.90;;;;;;5074896;28;20048;-75
2023/09/06 02:07:02;;;;;;;13.05;11.55;;;17.30;99.90;;;;;;5073921;28;20051;-75
2023/09/06 02:09:28;;;;;;;13.55;11.30;;;17.30;99.90;;;;;;5072103;28;20052;-75
2023/09/06 02:11:55;;;;;;;14.75;12.48;;;17.30;99.90;;;;;;5073066;28;20056;-75
2023/09/06 02:14:22;;;;;;;14.10;11.88;;;17.30;99.90;;;;;;5074608;28;20057;-75
2023/09/06 02:16:50;;;;;;;13.52;12.07;;;17.30;99.90;;;;;;5073407;28;20442;-75
2023/09/06 02:19:16;;;;;;;14.25;11.85;;;17.30;99.90;;;;;;5074481;28;20048;-75
2023/09/06 02:21:42;;;;;;;16.30;11.70;;;17.30;99.90;;;;;;5072848;28;20059;-74
2023/09/06 02:24:10;;;;;;;15.18;12.57;;;17.20;99.90;;;;;;5072835;28;20032;-74
2023/09/06 02:26:37;;;;;;;13.93;11.73;;;17.20;99.90;;;;;;5073707;28;20032;-75
2023/09/06 02:29:04;;;;;;;14.63;11.18;;;17.20;99.90;;;;;;5074021;28;20059;-75
2023/09/06 02:31:29;;;;;;;13.75;11.73;;;17.20;99.90;;;;;;5072001;28;20051;-75
2023/09/06 02:33:55;;;;;;;18.27;11.65;;;17.10;99.90;;;;;;5072432;28;20040;-75
2023/09/06 02:36:21;;;;;;;14.48;12.02;;;17.10;99.90;;;;;;5074158;28;20044;-75
2023/09/06 02:38:47;;;;;;;15.85;12.13;;;17.10;99.90;;;;;;5073320;28;20041;-74
2023/09/06 02:41:13;;;;;;;14.25;12.15;;;17.10;99.90;;;;;;5072549;28;20404;-75
2023/09/06 02:43:39;;;;;;;16.52;12.00;;;17.10;99.90;;;;;;5072559;28;20048;-74
2023/09/06 02:46:04;;;;;;;14.55;11.98;;;17.00;99.90;;;;;;5072580;28;20048;-74
2023/09/06 02:48:33;;;;;;;15.05;12.13;;;17.00;99.90;;;;;;5073875;28;20040;-75
2023/09/06 02:50:59;;;;;;;14.88;11.68;;;17.00;99.90;;;;;;5072802;28;20044;-74
2023/09/06 02:53:26;;;;;;;13.98;12.02;;;17.00;99.90;;;;;;5073626;28;20041;-75
2023/09/06 02:55:53;;;;;;;12.98;11.35;;;17.10;99.90;;;;;;5072268;28;20052;-74
2023/09/06 02:58:25;;;;;;;16.13;12.20;;;17.00;99.90;;;;;;5072923;28;20064;-75
2023/09/06 03:00:57;;;;;;;14.20;11.02;;;17.00;99.90;;;;;;5072028;28;20059;-74
2023/09/06 03:03:26;;;;;;;15.55;11.68;;;17.00;99.90;;;;;;5093963;28;20516;-74
2023/09/06 03:05:56;;;;;;;14.27;12.05;;;17.00;99.90;;;;;;5083993;28;20049;-74
2023/09/06 03:08:25;;;;;;;13.00;11.50;;;16.90;99.90;;;;;;5071217;28;20451;-75
2023/09/06 03:10:52;;;;;;;15.48;11.07;;;16.90;99.90;;;;;;5075169;28;20059;-75
2023/09/06 03:13:20;;;;;;;14.82;11.90;;;16.90;99.90;;;;;;5074177;28;20484;-74
2023/09/06 03:15:47;;;;;;;12.93;10.75;;;16.90;99.90;;;;;;5075148;28;20102;-75
2023/09/06 03:18:13;;;;;;;13.43;11.00;;;16.90;99.90;;;;;;5075677;28;20043;-75
2023/09/06 03:20:44;;;;;;;13.38;10.90;;;16.90;99.90;;;;;;5092587;28;20099;-75
2023/09/06 03:23:17;;;;;;;12.98;10.75;;;16.90;99.90;;;;;;5074915;28;20541;-75
2023/09/06 03:25:57;;;;;;;12.10;10.50;;;16.80;99.90;;;;;;5092622;28;20434;-75
2023/09/06 03:28:28;;;;;;;14.27;11.65;;;16.80;99.90;;;;;;5092509;28;20394;-75
2023/09/06 03:31:03;;;;;;;12.88;10.63;;;16.80;99.90;;;;;;5057003;28;20074;-75
2023/09/06 03:33:30;;;;;;;12.50;11.20;;;16.70;99.90;;;;;;5090197;28;20051;-74
2023/09/06 03:35:56;;;;;;;16.05;10.68;;;16.70;99.90;;;;;;5092420;28;20286;-74
2023/09/06 03:38:25;;;;;;;15.02;10.85;;;16.70;99.90;;;;;;5092861;28;20032;-74
2023/09/06 03:40:51;;;;;;;12.50;10.57;;;16.70;99.90;;;;;;5073652;28;20055;-74
2023/09/06 03:43:19;;;;;;;12.80;11.40;;;16.70;99.90;;;;;;5092953;28;20040;-75
2023/09/06 03:45:51;;;;;;;13.65;10.68;;;16.70;99.90;;;;;;5074731;28;20506;-74
2023/09/06 03:48:19;;;;;;;13.00;10.20;;;16.70;99.90;;;;;;5074557;28;20429;-74
2023/09/06 03:50:46;;;;;;;13.40;10.82;;;16.60;99.90;;;;;;5074732;28;20047;-75
2023/09/06 03:53:13;;;;;;;11.95;10.38;;;16.60;99.90;;;;;;5092462;28;20055;-75
2023/09/06 03:55:41;;;;;;;14.13;10.88;;;16.60;99.90;;;;;;5073897;28;20122;-75
2023/09/06 03:58:07;;;;;;;12.32;10.07;;;16.50;99.90;;;;;;5075152;28;20098;-74
2023/09/06 04:00:33;;;;;;;12.00;9.52;;;16.50;99.90;;;;;;5052805;28;20068;-74
2023/09/06 04:02:59;;;;;;;11.98;9.80;;;16.50;99.90;;;;;;5046183;28;20049;-74
2023/09/06 04:05:26;;;;;;;12.23;9.95;;;16.50;99.90;;;;;;5038957;28;20048;-75
2023/09/06 04:07:57;;;;;;;11.02;9.73;;;16.50;99.90;;;;;;5039291;28;20114;-75
2023/09/06 04:10:44;;;;;;;11.80;10.20;;;16.40;99.90;;;;;;5039870;28;20049;-75
2023/09/06 04:13:11;;;;;;;12.38;9.63;;;16.40;99.90;;;;;;5042476;28;20041;-75
2023/09/06 04:15:38;;;;;;;10.73;8.65;;;16.50;99.90;;;;;;5040577;28;20037;-74
2023/09/06 04:18:05;;;;;;;10.18;8.63;;;16.40;99.90;;;;;;5042210;28;20049;-75
2023/09/06 04:20:36;;;;;;;10.40;8.52;;;16.40;99.90;;;;;;5042875;28;20067;-75
2023/09/06 04:23:06;;;;;;;11.13;8.77;;;16.40;99.90;;;;;;5043782;28;20612;-74
2023/09/06 04:25:41;;;;;;;11.30;8.65;;;16.40;99.90;;;;;;5042960;28;20045;-74
2023/09/06 04:28:20;;;;;;;13.07;8.57;;;16.40;99.90;;;;;;5043716;28;20396;-74
2023/09/06 04:30:46;;;;;;;12.13;8.80;;;16.40;99.90;;;;;;5043539;28;20041;-74
2023/09/06 04:33:15;;;;;;;10.45;8.95;;;16.40;99.90;;;;;;5045580;28;20127;-74
2023/09/06 04:35:46;;;;;;;9.95;8.00;;;16.40;99.90;;;;;;5044346;28;20528;-74
2023/09/06 04:38:14;;;;;;;10.23;8.27;;;16.40;99.90;;;;;;5044111;28;20160;-74
2023/09/06 04:40:44;;;;;;;9.48;8.20;;;16.50;99.90;;;;;;5036117;28;20046;-75
2023/09/06 04:43:10;;;;;;;9.23;7.57;;;16.50;99.90;;;;;;5034534;28;20416;-74
2023/09/06 04:45:39;;;;;;;10.68;7.55;;;16.50;99.90;;;;;;5035867;28;20033;-73
2023/09/06 04:48:09;;;;;;;9.73;8.23;;;16.50;99.90;;;;;;5035582;28;20041;-76
2023/09/06 04:50:39;;;;;;;10.52;6.80;;;16.60;99.90;;;;;;5034621;28;20029;-75
2023/09/06 04:53:07;;;;;;;10.18;6.90;;;16.70;99.90;;;;;;5034038;28;20084;-76
2023/09/06 04:55:35;;;;;;;11.35;7.30;;;16.70;99.90;;;;;;5035536;28;20466;-73
2023/09/06 04:58:04;;;;;;;8.68;6.80;;;16.70;99.90;;;;;;5053244;28;20076;-73
2023/09/06 05:00:33;;;;;;;8.15;7.15;;;16.80;99.90;;;;;;5054238;28;20049;-75
2023/09/06 05:03:00;;;;;;;11.43;6.80;;;16.80;99.90;;;;;;5071647;28;20488;-77
2023/09/06 05:05:26;;;;;;;9.13;7.00;;;16.80;99.90;;;;;;5074291;28;20040;-79
2023/09/06 05:07:52;;;;;;;8.93;6.47;;;16.80;99.90;;;;;;5075096;28;20080;-76
2023/09/06 05:10:18;;;;;;;8.75;6.70;;;16.90;99.90;;;;;;5074235;28;20083;-77
2023/09/06 05:12:45;;;;;;;9.40;6.70;;;16.90;99.90;;;;;;5073262;28;20062;-78
2023/09/06 05:15:12;;;;;;;9.52;6.78;;;17.00;99.90;;;;;;5075097;28;20052;-77
2023/09/06 05:17:39;;;;;;;9.30;6.10;;;17.10;99.90;;;;;;5073955;28;20049;-74
2023/09/06 05:20:27;;;;;;;10.05;6.63;;;17.10;99.90;;;;;;5072374;28;20045;-73
2023/09/06 05:23:05;;;;;;;9.02;6.72;;;17.10;99.90;;;;;;5067668;28;20048;-74
2023/09/06 05:25:31;;;;;;;8.68;6.45;;;17.10;99.90;;;;;;5074272;28;20091;-75
2023/09/06 05:28:05;;;;;;;8.50;6.55;;;17.20;99.90;;;;;;5072195;28;20033;-74
2023/09/06 05:30:38;;;;;;;9.73;6.22;;;17.20;99.90;;;;;;5074528;28;20044;-71
2023/09/06 05:33:04;;;;;;;11.48;6.38;;;17.20;99.90;;;;;;5072493;28;20047;-71
2023/09/06 05:35:30;;;;;;;11.93;6.47;;;17.30;99.90;;;;;;5074794;28;20076;-75
2023/09/06 05:37:55;;;;;;;9.63;6.85;;;17.30;99.90;;;;;;5073171;28;20067;-71
2023/09/06 05:40:22;;;;;;;9.68;6.47;;;17.30;99.90;;;;;;5071853;28;20048;-72
2023/09/06 05:42:52;;;;;;;9.18;6.50;;;16.70;99.90;;;;;;5072333;28;20044;-72
2023/09/06 05:45:26;;;;;;;7.80;6.20;;;17.40;99.90;;;;;;5074038;28;20033;-72
2023/09/06 05:47:52;;;;;;;10.68;6.22;;;17.40;99.90;;;;;;5060369;28;20048;-72
2023/09/06 05:50:19;;;;;;;10.30;6.63;;;17.40;99.90;;;;;;5066907;28;20495;-71
2023/09/06 05:52:48;;;;;;;9.40;6.60;;;17.50;99.90;;;;;;5060095;28;20037;-72
2023/09/06 05:55:14;;;;;;;8.07;6.72;;;17.50;99.90;;;;;;5052802;28;20044;-71
2023/09/06 05:57:40;;;;;;;7.45;5.90;;;17.50;99.90;;;;;;5050450;28;20041;-71
2023/09/06 06:00:12;;;;;;;9.05;6.70;;;17.50;99.90;;;;;;5050991;28;20540;-72
2023/09/06 06:02:41;;;;;;;11.63;6.32;;;17.60;99.90;;;;;;5047374;28;20491;-73
2023/09/06 06:05:09;;;;;;;9.27;6.30;;;17.60;99.90;;;;;;5049959;28;20044;-72
2023/09/06 06:07:34;;;;;;;11.70;6.40;;;17.60;99.90;;;;;;5050933;28;20093;-72
2023/09/06 06:10:00;;;;;;;10.07;6.53;;;17.60;99.90;;;;;;5031647;28;20038;-72
2023/09/06 06:12:26;;;;;;;10.68;6.55;;;17.60;99.90;;;;;;5031677;28;20080;-72
2023/09/06 06:14:52;;;;;;;10.93;6.57;;;17.60;99.90;;;;;;5032638;28;20504;-76
2023/09/06 06:17:18;;;;;;;9.05;6.10;;;17.70;99.90;;;;;;5032685;28;20050;-77
2023/09/06 06:19:48;;;;;;;11.48;6.07;;;17.70;99.90;;;;;;5034330;28;20048;-71
2023/09/06 06:22:13;;;;;;;8.82;6.00;;;17.70;99.90;;;;;;5033737;28;20041;-73
2023/09/06 06:24:43;;;;;;;7.35;5.65;;;17.80;99.90;;;;;;5034356;28;20121;-72
2023/09/06 06:27:09;;;;;;;7.88;5.70;;;17.90;99.90;;;;;;5032640;28;20195;-72
2023/09/06 06:29:34;;;;;;;7.78;5.75;;;18.00;99.90;;;;;;5032339;28;20473;-72
2023/09/06 06:32:00;;;;;;;10.30;6.13;;;18.00;99.90;;;;;;5032694;28;20492;-72
2023/09/06 06:34:25;;;;;;;6.78;5.80;;;18.20;99.90;;;;;;5032993;28;20043;-72
2023/09/06 06:36:51;;;;;;;9.45;5.85;;;18.20;99.90;;;;;;5044044;28;20060;-74
2023/09/06 06:39:17;;;;;;;7.38;5.60;;;18.30;99.90;;;;;;5054192;28;20045;-74
2023/09/06 06:41:44;;;;;;;7.07;5.50;;;18.30;99.90;;;;;;5048907;28;20052;-74
2023/09/06 06:44:10;;;;;;;9.82;5.53;;;18.30;99.90;;;;;;5035983;28;20046;-74
2023/09/06 06:46:38;;;;;;;9.40;5.53;;;18.40;99.90;;;;;;5030803;28;20049;-74
2023/09/06 06:49:07;;;;;;;10.25;6.15;;;18.50;99.90;;;;;;5031965;28;20489;-74
2023/09/06 06:51:38;;;;;;;11.60;6.10;;;18.60;99.90;;;;;;5031357;28;20041;-75
2023/09/06 06:54:08;;;;;;;11.93;5.82;;;18.70;99.90;;;;;;5031660;28;20041;-74
2023/09/06 06:56:35;;;;;;;9.88;6.18;;;18.70;99.90;;;;;;5031972;28;20049;-74
2023/09/06 06:59:02;;;;;;;8.52;6.40;;;18.70;99.90;;;;;;5033068;28;20053;-74
2023/09/06 07:01:28;;;;;;;11.63;6.03;;;18.80;99.90;;;;;;5047374;28;20087;-74
2023/09/06 07:03:54;;;;;;;8.95;5.93;;;18.80;99.90;;;;;;5093599;28;20089;-73
2023/09/06 07:06:23;;;;;;;10.05;6.05;;;18.90;99.90;;;;;;5093121;28;20051;-73
2023/09/06 07:08:49;;;;;;;10.00;6.65;;;19.00;99.90;;;;;;5075189;28;20047;-74
2023/09/06 07:11:16;;;;;;;8.55;6.03;;;19.00;99.90;;;;;;5092389;28;20093;-73
2023/09/06 07:13:42;;;;;;;8.07;6.57;;;19.10;99.90;;;;;;5093496;28;20052;-72
2023/09/06 07:16:09;;;;;;;7.28;5.50;;;19.20;99.90;;;;;;5092973;28;20036;-72
2023/09/06 07:18:35;;;;;;;7.80;5.70;;;19.30;99.90;;;;;;5074679;28;20092;-73
2023/09/06 07:21:01;;;;;;;8.35;5.80;;;19.60;99.90;;;;;;5092689;28;20036;-73
2023/09/06 07:23:27;;;;;;;7.65;5.60;;;20.60;99.90;;;;;;5074825;28;20047;-73
2023/09/06 07:25:53;;;;;;;7.88;5.72;;;22.00;99.90;;;;;;5092409;28;20063;-73
2023/09/06 07:28:22;;;;;;;10.63;5.38;;;23.40;99.90;;;;;;5093318;28;20040;-73
2023/09/06 07:30:49;;;;;;;8.63;5.38;;;24.60;99.90;;;;;;5092914;28;20048;-73
2023/09/06 07:33:15;;;;;;;7.88;5.18;;;25.60;99.90;;;;;;5074129;28;20040;-73
2023/09/06 07:35:42;;;;;;;7.30;5.40;;;26.30;99.90;;;;;;5092858;28;20048;-73
2023/09/06 07:38:08;;;;;;;6.82;4.85;;;26.80;99.90;;;;;;5074476;28;20125;-74
2023/09/06 07:40:34;;;;;;;8.30;5.10;;;27.30;99.90;;;;;;5074176;28;20040;-74
2023/09/06 07:43:00;;;;;;;6.07;4.72;;;27.70;99.90;;;;;;5074203;28;20482;-74
2023/09/06 07:45:25;;;;;;;7.72;5.60;;;28.20;99.90;;;;;;5074724;28;20047;-75
2023/09/06 07:47:51;;;;;;;7.18;5.10;;;28.70;98.20;;;;;;5073690;28;20044;-74
2023/09/06 07:50:17;;;;;;;7.18;5.00;;;29.10;97.30;;;;;;5092604;28;20044;-74
2023/09/06 07:52:43;;;;;;;9.75;5.40;;;29.20;97.20;;;;;;5074068;28;20055;-74
2023/09/06 07:55:08;;;;;;;8.85;4.93;;;29.50;97.50;;;;;;5073779;28;20044;-74
2023/09/06 07:57:34;;;;;;;6.90;4.90;;;29.80;96.80;;;;;;5092799;28;20097;-74
2023/09/06 08:00:00;;;;;;;5.32;4.03;;;30.40;96.10;;;;;;5091447;28;20095;-74
2023/09/06 08:02:26;;;;;;;7.22;4.43;;;30.80;95.90;;;;;;5073386;28;20439;-74
2023/09/06 08:04:51;;;;;;;6.40;4.18;;;31.20;94.70;;;;;;5092242;28;20048;-74
2023/09/06 08:07:22;;;;;;;7.97;4.50;;;31.70;93.90;;;;;;5074286;28;20048;-74
2023/09/06 08:09:47;;;;;;;7.45;4.50;;;32.00;94.50;;;;;;5091442;28;20436;-74
2023/09/06 08:12:13;;;;;;;6.95;4.30;;;32.10;93.80;;;;;;5092335;28;20115;-74
2023/09/06 08:14:39;;;;;;;6.32;4.90;;;32.20;93.10;;;;;;5091583;28;20476;-74
2023/09/06 08:17:05;;;;;;;6.90;4.68;;;32.50;92.10;;;;;;5087820;28;20369;-73
2023/09/06 08:19:31;;;;;;;6.90;4.30;;;32.60;91.90;;;;;;5055529;28;20127;-73
2023/09/06 08:21:58;;;;;;;8.05;4.93;;;32.50;92.70;;;;;;5052263;28;20059;-73
2023/09/06 08:24:24;;;;;;;7.05;4.50;;;33.00;92.00;;;;;;5074748;28;20036;-74
2023/09/06 08:26:50;;;;;;;6.53;4.47;;;33.10;92.20;;;;;;5053372;28;20044;-75
2023/09/06 08:29:15;;;;;;;5.65;4.70;;;33.30;91.70;;;;;;5072662;28;20593;-74
2023/09/06 08:31:41;;;;;;;7.30;4.55;;;33.30;91.10;;;;;;5073877;28;20135;-74
2023/09/06 08:34:07;;;;;;;7.25;4.50;;;33.20;91.00;;;;;;5074047;28;20040;-74
2023/09/06 08:36:33;;;;;;;6.95;4.47;;;33.30;91.80;;;;;;5073172;28;20503;-75
2023/09/06 08:38:58;;;;;;;8.70;4.32;;;33.50;90.80;;;;;;5073998;28;20039;-75
2023/09/06 08:41:26;;;;;;;6.30;4.53;;;33.70;91.30;;;;;;5073499;28;20040;-75
2023/09/06 08:43:52;;;;;;;8.15;4.85;;;33.80;90.90;;;;;;5073274;28;20075;-74
2023/09/06 08:46:30;;;;;;;7.60;4.63;;;34.10;90.80;;;;;;5092625;28;20040;-74
2023/09/06 08:48:57;;;;;;;10.23;4.68;;;34.30;90.60;;;;;;5074113;28;20548;-73
2023/09/06 08:51:25;;;;;;;7.03;4.70;;;34.40;90.10;;;;;;5091803;28;20047;-76
2023/09/06 08:53:52;;;;;;;7.25;4.40;;;34.70;90.50;;;;;;5074160;28;20052;-72
2023/09/06 08:56:19;;;;;;;6.88;4.25;;;34.70;89.70;;;;;;5073735;28;20051;-72
2023/09/06 08:58:44;;;;;;;6.55;4.55;;;34.50;90.20;;;;;;5076065;28;20075;-73
2023/09/06 09:01:10;;;;;;;5.82;4.03;;;34.30;90.10;;;;;;5073173;28;20088;-72
2023/09/06 09:03:36;;;;;;;8.38;4.43;;;34.40;90.00;;;;;;5073511;28;20098;-72
2023/09/06 09:06:08;;;;;;;7.13;4.60;;;34.30;89.40;;;;;;5090785;28;20070;-74
2023/09/06 09:08:34;;;;;;;6.05;3.95;;;34.40;89.60;;;;;;5071079;28;20040;-74
2023/09/06 09:11:14;;;;;;;8.38;4.65;;;34.60;89.20;;;;;;5074872;28;20074;-73
2023/09/06 09:13:41;;;;;;;5.32;4.30;;;34.80;89.10;;;;;;5074169;28;20040;-73
2023/09/06 09:16:14;;;;;;;7.80;4.30;;;34.70;89.80;;;;;;5073817;28;20590;-72
2023/09/06 09:18:42;;;;;;;6.13;3.97;;;35.10;88.40;;;;;;5072411;28;20048;-73
2023/09/06 09:21:10;;;;;;;5.88;4.22;;;34.90;89.40;;;;;;5073555;28;20435;-72
2023/09/06 09:23:52;;;;;;;5.82;3.92;;;35.20;88.40;;;;;;5074184;28;20094;-72
2023/09/06 09:26:20;;;;;;;7.35;4.65;;;35.30;88.70;;;;;;5073223;28;20044;-73
2023/09/06 09:28:46;;;;;;;9.65;4.55;;;35.20;88.50;;;;;;5073729;28;20059;-73
2023/09/06 09:31:18;;;;;;;6.28;4.30;;;35.20;87.50;;;;;;5074070;28;20048;-72
2023/09/06 09:33:49;;;;;;;5.78;4.20;;;34.90;89.00;;;;;;5073024;28;20080;-72
2023/09/06 09:36:17;;;;;;;6.70;4.10;;;35.10;88.50;;;;;;5075141;28;20048;-72
2023/09/06 09:38:48;;;;;;;6.68;4.30;;;35.20;88.70;;;;;;5073959;28;20067;-73
2023/09/06 09:41:14;;;;;;;8.57;4.43;;;34.80;89.90;;;;;;5074426;28;20060;-73
2023/09/06 09:43:40;;;;;;;6.05;4.30;;;35.20;88.20;;;;;;5075211;28;20036;-73
2023/09/06 09:46:07;;;;;;;7.00;4.22;;;35.30;88.60;;;;;;5072187;28;20075;-73
2023/09/06 09:48:33;;;;;;;6.40;4.55;;;35.40;88.20;;;;;;5073581;28;20483;-73
2023/09/06 09:51:07;;;;;;;5.78;4.07;;;35.40;88.50;;;;;;5074812;28;20127;-73
2023/09/06 09:53:33;;;;;;;5.25;4.10;;;35.50;87.80;;;;;;5073968;28;20041;-72
2023/09/06 09:56:09;;;;;;;7.47;3.70;;;35.30;88.40;;;;;;5072782;28;20136;-74
2023/09/06 09:58:37;;;;;;;4.95;3.65;;;35.30;89.30;;;;;;5074872;28;20032;-73
2023/09/06 10:01:05;;;;;;;6.07;3.67;;;35.80;88.10;;;;;;5073162;28;20507;-72
2023/09/06 10:03:33;;;;;;;4.53;3.50;;;36.10;87.80;;;;;;5074936;28;20041;-72
2023/09/06 10:06:01;;;;;;;6.50;3.80;;;36.30;87.00;;;;;;5076693;28;20037;-74
2023/09/06 10:08:30;;;;;;;6.72;3.63;;;36.40;87.60;;;;;;5074420;28;20090;-74
2023/09/06 10:11:02;;;;;;;8.05;4.07;;;36.40;86.20;;;;;;5056101;28;20510;-73
2023/09/06 10:13:29;;;;;;;6.70;4.07;;;36.00;87.10;;;;;;5055943;28;20110;-72
2023/09/06 10:15:56;;;;;;;8.07;3.47;;;35.80;87.20;;;;;;5054803;28;20488;-73
2023/09/06 10:18:22;;;;;;;5.93;3.65;;;35.70;87.60;;;;;;5069652;28;20131;-72
2023/09/06 10:20:48;;;;;;;4.78;3.13;;;35.70;87.50;;;;;;5055094;28;20127;-72
2023/09/06 10:23:14;;;;;;;6.65;3.15;;;35.60;88.60;;;;;;5053816;28;20036;-72
2023/09/06 10:25:41;;;;;;;5.00;3.53;;;35.80;87.70;;;;;;5073747;28;20043;-74
2023/09/06 10:28:07;;;;;;;6.22;3.75;;;36.20;86.60;;;;;;5060709;28;20660;-73
2023/09/06 10:30:43;;;;;;;5.68;3.45;;;36.20;86.40;;;;;;5055719;28;20044;-73
2023/09/06 10:33:32;;;;;;;5.05;3.05;;;36.20;86.80;;;;;;5073968;28;20500;-73
2023/09/06 10:36:02;;;;;;;4.43;3.15;;;36.00;85.90;;;;;;5045790;28;20065;-73
2023/09/06 10:38:30;;;;;;;5.43;3.15;;;36.30;86.20;;;;;;5055380;28;20066;-73
2023/09/06 10:40:55;;;;;;;5.80;2.83;;;36.60;85.60;;;;;;5052266;28;20128;-72
2023/09/06 10:44:00;;;;;;;6.20;3.20;;;36.40;86.30;;;;;;5055473;28;20119;-73
2023/09/06 10:46:28;;;;;;;3.80;2.80;;;36.20;86.00;;;;;;5067575;28;20040;-74
2023/09/06 10:49:12;;;;;;;6.85;3.13;;;36.20;87.00;;;;;;5093516;28;20044;-73
2023/09/06 10:52:04;;;;;;;4.20;3.17;;;36.10;86.80;;;;;;5093100;28;20082;-73
2023/09/06 10:54:34;;;;;;;5.38;2.65;;;36.60;85.60;;;;;;5036048;28;20069;-73
2023/09/06 10:57:05;;;;;;;4.40;2.60;;;36.50;85.50;;;;;;5034779;28;20055;-73
2023/09/06 10:59:35;;;;;;;8.32;3.20;;;36.40;86.60;;;;;;5035774;28;20076;-73
2023/09/06 11:02:14;;;;;;;3.63;2.70;;;36.50;85.40;;;;;;5052937;28;20048;-73
2023/09/06 11:04:40;;;;;;;5.13;2.60;;;36.80;85.10;;;;;;5052948;28;20152;-73
2023/09/06 11:07:10;;;;;;;5.43;2.63;;;36.90;84.40;;;;;;5057288;28;20102;-73
2023/09/06 11:09:50;;;;;;;4.18;2.53;;;36.90;83.20;;;;;;5073215;28;20047;-72
2023/09/06 11:12:16;;;;;;;5.90;2.80;;;36.40;84.70;;;;;;5072420;28;20484;-75
2023/09/06 11:14:47;;;;;;;4.13;2.83;;;36.20;85.10;;;;;;5072001;28;20041;-75
2023/09/06 11:17:23;;;;;;;5.13;2.85;;;36.10;84.90;;;;;;5072184;28;20040;-75
2023/09/06 11:19:55;;;;;;;6.43;2.60;;;36.10;84.80;;;;;;5072810;28;20044;-75
2023/09/06 11:22:20;;;;;;;5.80;2.90;;;36.10;84.70;;;;;;5071824;28;20052;-76
2023/09/06 11:24:48;;;;;;;6.95;2.75;;;36.00;85.40;;;;;;5072278;28;20143;-76
2023/09/06 11:27:29;;;;;;;4.95;2.63;;;35.60;85.90;;;;;;5071672;28;20441;-74
2023/09/06 11:30:10;;;;;;;3.60;2.42;;;35.50;87.80;;;;;;5072483;28;20036;-79
2023/09/06 11:32:36;;;;;;;4.35;2.88;;;35.50;85.80;;;;;;5070691;28;20044;-76
2023/09/06 11:35:08;;;;;;;4.68;2.40;;;35.80;86.00;;;;;;5075637;28;20040;-75
2023/09/06 11:37:37;;;;;;;3.40;2.25;;;36.00;85.20;;;;;;5073958;28;20543;-74
2023/09/06 11:40:13;;;;;;;5.78;2.55;;;36.10;85.90;;;;;;5071728;28;20060;-74
2023/09/06 11:42:40;;;;;;;4.10;2.60;;;35.90;84.50;;;;;;5071556;28;20047;-79
2023/09/06 11:45:07;;;;;;;5.55;2.80;;;36.20;85.20;;;;;;5072534;28;20114;-76
2023/09/06 11:47:34;;;;;;;5.50;2.17;;;36.00;84.10;;;;;;5071740;28;20079;-79
2023/09/06 11:50:03;;;;;;;3.72;2.20;;;35.90;84.20;;;;;;5072601;28;20123;-79
2023/09/06 11:52:30;;;;;;;4.45;2.30;;;35.60;84.70;;;;;;5071458;28;20105;-82
2023/09/06 11:54:58;;;;;;;4.13;2.50;;;35.60;83.90;;;;;;5070225;28;20083;-79
2023/09/06 11:57:26;;;;;;;4.75;2.33;;;35.50;83.50;;;;;;5072407;28;20402;-83
2023/09/06 11:59:58;;;;;;;3.63;2.30;;;35.50;83.50;;;;;;5070401;28;20091;-80
2023/09/06 12:02:30;;;;;;;3.40;2.08;;;35.20;85.10;;;;;;5071098;28;20491;-80
2023/09/06 12:05:00;;;;;;;5.00;2.33;;;35.40;85.40;;;;;;5070753;28;20517;-78
2023/09/06 12:07:27;;;;;;;4.65;2.70;;;35.50;84.10;;;;;;5073719;28;20032;-79
2023/09/06 12:09:57;;;;;;;4.25;2.17;;;35.60;83.30;;;;;;5091896;28;20075;-83
2023/09/06 12:12:26;;;;;;;4.50;2.38;;;35.40;84.90;;;;;;5074575;28;20044;-81
2023/09/06 12:14:56;;;;;;;4.22;2.10;;;35.30;84.50;;;;;;5091020;28;20549;-84
2023/09/06 12:17:23;;;;;;;4.35;2.40;;;35.30;83.90;;;;;;5034456;28;20076;-79
2023/09/06 12:20:00;;;;;;;4.45;2.15;;;35.40;84.10;;;;;;5044492;28;20057;-81
2023/09/06 12:22:26;;;;;;;4.40;2.28;;;35.30;84.70;;;;;;5070425;28;20094;-82
2023/09/06 12:24:52;;;;;;;6.13;2.10;;;35.50;84.70;;;;;;5070661;28;20041;-81
2023/09/06 12:27:20;;;;;;;4.22;2.00;;;35.60;83.80;;;;;;5053213;28;20052;-81
2023/09/06 12:29:45;;;;;;;3.90;2.10;;;35.50;84.50;;;;;;5055093;28;20055;-80
2023/09/06 12:32:11;;;;;;;3.40;2.15;;;35.50;84.80;;;;;;5077180;28;20543;-84
2023/09/06 12:34:37;;;;;;;3.22;2.10;;;35.40;84.40;;;;;;5071510;28;20399;-78
2023/09/06 12:37:03;;;;;;;3.70;2.10;;;35.30;83.90;;;;;;5055179;28;20032;-78
2023/09/06 12:39:28;;;;;;;3.67;2.20;;;35.10;83.80;;;;;;5071699;28;20453;-79
2023/09/06 12:41:55;;;;;;;4.80;2.10;;;35.00;84.30;;;;;;5052833;28;20057;-80
2023/09/06 12:44:21;;;;;;;3.25;1.85;;;34.80;83.80;;;;;;5054189;28;20399;-79
2023/09/06 12:46:47;;;;;;;4.10;2.10;;;34.80;83.40;;;;;;5075521;28;20041;-80